createdAt,value
2023-05-16T05:15:32.149Z,93996.00
2023-05-16T05:16:32.236Z,93994.00
2023-05-16T05:17:32.295Z,93996.00
2023-05-16T05:18:32.951Z,93994.00
2023-05-16T05:19:31.937Z,93996.00
2023-05-16T05:20:31.993Z,93996.00
2023-05-16T05:21:32.185Z,93994.00
2023-05-16T05:22:31.938Z,93994.00
2023-05-16T05:23:31.994Z,93994.00
2023-05-16T05:24:32.135Z,93996.00
2023-05-16T05:25:32.465Z,93996.00
2023-05-16T05:26:32.301Z,93998.00
2023-05-16T05:27:32.301Z,93996.00
2023-05-16T05:28:33.197Z,93998.00
2023-05-16T05:29:33.461Z,93998.00
2023-05-16T05:30:32.589Z,93998.00
2023-05-16T05:31:33.633Z,93998.00
2023-05-16T05:32:32.344Z,93998.00
2023-05-16T05:33:32.747Z,93994.00
2023-05-16T05:34:32.684Z,93992.00
2023-05-16T05:35:33.226Z,93994.00
2023-05-16T05:36:33.747Z,93990.00
2023-05-16T05:37:32.647Z,93990.00
2023-05-16T05:38:32.829Z,93988.00
2023-05-16T05:39:33.647Z,93986.00
2023-05-16T05:40:32.716Z,93986.00
2023-05-16T05:41:32.717Z,93986.00
2023-05-16T05:42:34.100Z,93988.00
2023-05-16T05:43:32.939Z,93988.00
2023-05-16T05:44:34.012Z,93982.00
2023-05-16T05:45:34.097Z,93980.00
2023-05-16T05:46:33.119Z,93980.00
2023-05-16T05:47:32.972Z,93982.00
2023-05-16T05:48:34.049Z,93982.00
2023-05-16T05:50:52.441Z,93984.00
2023-05-16T05:51:52.292Z,93984.00
2023-05-16T05:52:52.560Z,93978.00
2023-05-16T05:53:53.608Z,93978.00
2023-05-16T05:54:51.967Z,93976.00
2023-05-16T05:55:51.931Z,93978.00
2023-05-16T05:56:52.010Z,93976.00
2023-05-16T05:57:52.024Z,93982.00
2023-05-16T05:58:52.897Z,93976.00
2023-05-16T05:59:51.834Z,93976.00
2023-05-16T06:00:51.822Z,93978.00
2023-05-16T06:01:51.857Z,93976.00
2023-05-16T06:02:52.101Z,93976.00
2023-05-16T06:03:51.801Z,93976.00
2023-05-16T06:04:51.833Z,93974.00
2023-05-16T06:05:52.992Z,93974.00
2023-05-16T06:06:53.027Z,93974.00
2023-05-16T06:07:52.419Z,93970.00
2023-05-16T06:08:51.786Z,93970.00
2023-05-16T06:09:52.812Z,93974.00
2023-05-16T06:10:52.123Z,93972.00
2023-05-16T06:11:52.771Z,93972.00
2023-05-16T06:12:51.763Z,93972.00
2023-05-16T06:13:53.548Z,93976.00
2023-05-16T06:14:55.732Z,93978.00
2023-05-16T06:15:52.357Z,93974.00
2023-05-16T06:16:52.454Z,93974.00
2023-05-16T06:17:54.734Z,93976.00
2023-05-16T06:18:53.285Z,93974.00
2023-05-16T06:19:51.883Z,93976.00
2023-05-16T06:22:11.483Z,93978.00
2023-05-16T06:23:12.680Z,93978.00
2023-05-16T06:24:12.487Z,93982.00
2023-05-16T06:25:10.727Z,93982.00
2023-05-16T06:26:11.567Z,93976.00
2023-05-16T06:27:12.521Z,93976.00
2023-05-16T06:28:12.174Z,93974.00
2023-05-16T06:29:10.729Z,93974.00
2023-05-16T06:30:10.884Z,93970.00
2023-05-16T06:31:11.493Z,93966.00
2023-05-16T06:32:13.195Z,93963.00
2023-05-16T06:33:12.504Z,93963.00
2023-05-16T06:34:11.728Z,93963.00
2023-05-16T06:35:10.911Z,93963.00
2023-05-16T06:36:20.035Z,93966.00
2023-05-16T06:37:10.998Z,93966.00
2023-05-16T06:38:12.152Z,93972.00
2023-05-16T06:39:10.814Z,93970.00
2023-05-16T06:40:11.853Z,93974.00
2023-05-16T06:41:10.976Z,93974.00
2023-05-16T06:42:10.791Z,93976.00
2023-05-16T06:43:10.965Z,93974.00
2023-05-16T06:44:10.862Z,93976.00
2023-05-16T06:45:11.941Z,93976.00
2023-05-16T06:46:11.119Z,93978.00
2023-05-16T06:47:11.172Z,93978.00
2023-05-16T06:48:10.824Z,93974.00
2023-05-16T06:49:10.960Z,93976.00
2023-05-16T06:50:10.912Z,93974.00
2023-05-16T06:51:10.950Z,93972.00
2023-05-16T06:52:11.139Z,93974.00
2023-05-16T06:53:10.745Z,93972.00
2023-05-16T06:54:10.795Z,93974.00
2023-05-16T06:55:10.960Z,93974.00
2023-05-16T06:56:11.150Z,93974.00
2023-05-16T06:57:11.945Z,93974.00
2023-05-16T06:58:11.247Z,93976.00
2023-05-16T06:59:11.042Z,93972.00
2023-05-16T07:00:12.093Z,93974.00
2023-05-16T07:01:14.302Z,93972.00
2023-05-16T07:02:11.502Z,93972.00
2023-05-16T07:03:14.462Z,93970.00
2023-05-16T07:04:12.044Z,93970.00
2023-05-16T07:05:12.545Z,93972.00
2023-05-16T07:06:13.773Z,93970.00
2023-05-16T07:07:12.463Z,93968.00
2023-05-16T07:08:12.771Z,93970.00
2023-05-16T07:09:11.101Z,93972.00
2023-05-16T07:10:11.856Z,93970.00
2023-05-16T07:11:12.086Z,93970.00
2023-05-16T07:12:11.041Z,93970.00
2023-05-16T07:13:12.001Z,93970.00
2023-05-16T07:14:13.631Z,93968.00
2023-05-16T07:15:11.556Z,93968.00
2023-05-16T07:16:12.662Z,93968.00
2023-05-16T07:17:10.985Z,93968.00
2023-05-16T07:18:11.225Z,93970.00
2023-05-16T07:19:11.210Z,93970.00
2023-05-16T07:20:10.965Z,93970.00
2023-05-16T07:21:11.045Z,93972.00
2023-05-16T07:22:11.285Z,93974.00
2023-05-16T07:23:11.023Z,93972.00
2023-05-16T07:24:10.930Z,93972.00
2023-05-16T07:25:10.906Z,93970.00
2023-05-16T07:26:11.051Z,93970.00
2023-05-16T07:27:11.031Z,93970.00
2023-05-16T07:28:12.236Z,93972.00
2023-05-16T07:29:11.614Z,93976.00
2023-05-16T07:30:14.459Z,93976.00
2023-05-16T07:31:18.355Z,93978.00
2023-05-16T07:32:13.029Z,93980.00
2023-05-16T07:33:12.698Z,93980.00
2023-05-16T07:35:31.565Z,93980.00
2023-05-16T07:36:31.029Z,93980.00
2023-05-16T07:37:31.979Z,93980.00
2023-05-16T07:38:39.871Z,93984.00
2023-05-16T07:39:32.164Z,93986.00
2023-05-16T07:40:31.886Z,93984.00
2023-05-16T07:43:24.229Z,93984.00
2023-05-16T07:46:29.406Z,93988.00
2023-05-16T07:47:28.142Z,93990.00
2023-05-16T07:48:31.587Z,93992.00
2023-05-16T07:49:28.894Z,93994.00
2023-05-16T07:50:27.299Z,93992.00
2023-05-16T07:51:28.286Z,93990.00
2023-05-16T07:52:28.570Z,93990.00
2023-05-16T07:53:27.262Z,93988.00
2023-05-16T07:58:40.495Z,93990.00
2023-05-16T07:59:37.705Z,93988.00
2023-05-16T08:00:37.276Z,93990.00
2023-05-16T08:01:37.319Z,93994.00
2023-05-16T08:02:37.813Z,93994.00
2023-05-16T08:03:37.270Z,93992.00
2023-05-16T08:04:40.447Z,93990.00
2023-05-16T08:05:38.885Z,93992.00
2023-05-16T08:06:37.119Z,93992.00
2023-05-16T08:07:37.891Z,93990.00
2023-05-16T08:08:38.865Z,93990.00
2023-05-16T08:09:41.895Z,93990.00
2023-05-16T08:10:37.887Z,93988.00
2023-05-16T08:11:36.745Z,93988.00
2023-05-16T08:12:36.889Z,93990.00
2023-05-16T08:13:37.140Z,93992.00
2023-05-16T08:14:37.115Z,93990.00
2023-05-16T08:15:38.143Z,93986.00
2023-05-16T08:16:42.516Z,93986.00
2023-05-16T08:17:37.410Z,93984.00
2023-05-16T08:18:39.991Z,93986.00
2023-05-16T08:19:36.889Z,93986.00
2023-05-16T08:20:39.042Z,93984.00
2023-05-16T08:21:38.704Z,93984.00
2023-05-16T08:22:36.756Z,93984.00
2023-05-16T08:23:36.884Z,93984.00
2023-05-16T08:24:36.786Z,93982.00
2023-05-16T08:25:36.836Z,93984.00
2023-05-16T08:26:36.881Z,93978.00
2023-05-16T08:27:37.105Z,93980.00
2023-05-16T08:28:36.867Z,93982.00
2023-05-16T08:29:36.856Z,93982.00
2023-05-16T08:30:36.862Z,93980.00
2023-05-16T08:31:37.526Z,93978.00
2023-05-16T08:32:36.926Z,93970.00
2023-05-16T08:33:37.886Z,93968.00
2023-05-16T08:34:37.002Z,93970.00
2023-05-16T08:35:36.888Z,93970.00
2023-05-16T08:36:37.940Z,93974.00
2023-05-16T08:37:37.125Z,93972.00
2023-05-16T08:38:38.735Z,93974.00
2023-05-16T08:39:37.674Z,93978.00
2023-05-16T08:40:37.399Z,93976.00
2023-05-16T08:41:40.801Z,93976.00
2023-05-16T08:42:39.134Z,93978.00
2023-05-16T08:43:38.675Z,93974.00
2023-05-16T08:44:39.646Z,93976.00
2023-05-16T08:45:37.736Z,93976.00
2023-05-16T08:46:38.699Z,93970.00
2023-05-16T08:47:37.911Z,93972.00
2023-05-16T08:48:37.433Z,93972.00
2023-05-16T08:49:38.607Z,93970.00
2023-05-16T08:50:38.592Z,93968.00
2023-05-16T08:51:37.389Z,93966.00
2023-05-16T08:52:38.763Z,93964.00
2023-05-16T08:53:38.138Z,93966.00
2023-05-16T08:54:38.581Z,93963.00
2023-05-16T08:55:37.444Z,93961.00
2023-05-16T08:56:37.360Z,93959.00
2023-05-16T08:57:37.497Z,93955.00
2023-05-16T08:58:37.185Z,93953.00
2023-05-16T08:59:37.537Z,93953.00
2023-05-16T09:00:37.080Z,93951.00
2023-05-16T09:01:37.614Z,93953.00
2023-05-16T09:02:37.289Z,93949.00
2023-05-16T09:03:37.331Z,93949.00
2023-05-16T09:04:37.673Z,93947.00
2023-05-16T09:05:37.567Z,93947.00
2023-05-16T09:06:38.225Z,93943.00
2023-05-16T09:07:37.577Z,93943.00
2023-05-16T09:08:37.604Z,93939.00
2023-05-16T09:09:37.604Z,93937.00
2023-05-16T09:10:37.154Z,93937.00
2023-05-16T09:11:38.076Z,93935.00
2023-05-16T09:12:37.397Z,93937.00
2023-05-16T09:13:39.070Z,93935.00
2023-05-16T09:14:37.272Z,93931.00
2023-05-16T09:15:38.445Z,93929.00
2023-05-16T09:16:39.092Z,93929.00
2023-05-16T09:17:39.997Z,93931.00
2023-05-16T09:18:37.421Z,93929.00
2023-05-16T09:19:37.422Z,93929.00
2023-05-16T09:20:37.179Z,93931.00
2023-05-16T09:21:37.307Z,93935.00
2023-05-16T09:22:38.941Z,93935.00
2023-05-16T09:23:38.231Z,93937.00
2023-05-16T09:24:37.175Z,93935.00
2023-05-16T09:25:38.183Z,93933.00
2023-05-16T09:26:40.041Z,93935.00
2023-05-16T09:27:40.531Z,93937.00
2023-05-16T09:28:37.896Z,93937.00
2023-05-16T09:29:37.937Z,93939.00
2023-05-16T09:30:38.425Z,93939.00
2023-05-16T09:31:38.210Z,93935.00
2023-05-16T09:32:38.491Z,93933.00
2023-05-16T09:33:37.369Z,93933.00
2023-05-16T09:34:39.111Z,93939.00
2023-05-16T09:36:58.365Z,93941.00
2023-05-16T09:37:58.342Z,93943.00
2023-05-16T09:38:57.240Z,93941.00
2023-05-16T09:39:56.726Z,93941.00
2023-05-16T09:40:56.417Z,93937.00
2023-05-16T09:41:56.468Z,93939.00
2023-05-16T09:42:56.276Z,93941.00
2023-05-16T09:43:56.594Z,93939.00
2023-05-16T09:44:57.102Z,93945.00
2023-05-16T09:45:58.448Z,93939.00
2023-05-16T09:48:15.933Z,93945.00
2023-05-16T09:49:16.034Z,93945.00
2023-05-16T09:50:17.325Z,93947.00
2023-05-16T09:51:17.408Z,93947.00
2023-05-16T09:52:16.259Z,93945.00
2023-05-16T09:53:17.036Z,93943.00
2023-05-16T09:54:15.804Z,93943.00
2023-05-16T09:55:17.094Z,93939.00
2023-05-16T09:56:15.852Z,93939.00
2023-05-16T09:57:15.822Z,93939.00
2023-05-16T09:58:16.049Z,93939.00
2023-05-16T09:59:15.932Z,93941.00
2023-05-16T10:00:15.575Z,93939.00
2023-05-16T10:01:15.702Z,93939.00
2023-05-16T10:02:15.754Z,93945.00
2023-05-16T10:03:15.825Z,93945.00
2023-05-16T10:04:16.136Z,93945.00
2023-05-16T10:05:15.998Z,93945.00
2023-05-16T10:06:16.917Z,93941.00
2023-05-16T10:07:16.405Z,93937.00
2023-05-16T10:08:16.189Z,93935.00
2023-05-16T10:09:16.039Z,93937.00
2023-05-16T10:10:16.090Z,93935.00
2023-05-16T10:11:16.481Z,93935.00
2023-05-16T10:12:17.925Z,93941.00
2023-05-16T10:13:17.986Z,93941.00
2023-05-16T10:14:16.455Z,93933.00
2023-05-16T10:15:16.304Z,93943.00
2023-05-16T10:16:16.530Z,93937.00
2023-05-16T10:18:35.892Z,93933.00
2023-05-16T10:19:35.973Z,93941.00
2023-05-16T10:20:35.724Z,93939.00
2023-05-16T10:21:35.533Z,93939.00
2023-05-16T10:22:35.081Z,93945.00
2023-05-16T10:23:35.231Z,93945.00
2023-05-16T10:24:35.991Z,93943.00
2023-05-16T10:25:36.821Z,93945.00
2023-05-16T10:26:38.537Z,93947.00
2023-05-16T10:28:55.129Z,93953.00
2023-05-16T10:29:56.775Z,93955.00
2023-05-16T10:30:58.077Z,93955.00
2023-05-16T10:31:54.462Z,93957.00
2023-05-16T10:32:54.603Z,93953.00
2023-05-16T10:33:54.283Z,93953.00
2023-05-16T10:34:55.170Z,93955.00
2023-05-16T10:35:54.751Z,93959.00
2023-05-16T10:36:54.165Z,93959.00
2023-05-16T10:37:54.113Z,93963.00
2023-05-16T10:38:54.248Z,93961.00
2023-05-16T10:39:54.550Z,93961.00
2023-05-16T10:41:03.188Z,93961.00
2023-05-16T10:42:01.134Z,93963.00
2023-05-16T10:42:57.334Z,93963.00
2023-05-16T10:43:56.314Z,93963.00
2023-05-16T10:45:05.056Z,93963.00
2023-05-16T10:45:58.361Z,93964.00
2023-05-16T10:46:55.200Z,93964.00
2023-05-16T10:47:56.093Z,93964.00
2023-05-16T10:48:58.739Z,93957.00
2023-05-16T10:50:00.044Z,93963.00
2023-05-16T10:50:56.021Z,93963.00
2023-05-16T10:51:55.681Z,93966.00
2023-05-16T10:52:55.797Z,93966.00
2023-05-16T10:54:06.840Z,93968.00
2023-05-16T10:55:23.059Z,93970.00
2023-05-16T10:56:16.502Z,93970.00
2023-05-16T10:57:13.757Z,93972.00
2023-05-16T10:58:16.561Z,93972.00
2023-05-16T10:59:14.221Z,93972.00
2023-05-16T11:00:15.985Z,93972.00
2023-05-16T11:01:13.791Z,93972.00
2023-05-16T11:02:15.709Z,93974.00
2023-05-16T11:03:15.125Z,93976.00
2023-05-16T11:04:15.826Z,93974.00
2023-05-16T11:05:14.177Z,93976.00
2023-05-16T11:06:14.783Z,93976.00
2023-05-16T11:07:16.184Z,93972.00
2023-05-16T11:08:13.576Z,93974.00
2023-05-16T11:09:16.206Z,93974.00
2023-05-16T11:10:13.761Z,93978.00
2023-05-16T11:11:15.032Z,93978.00
2023-05-16T11:12:13.360Z,93976.00
2023-05-16T11:13:13.792Z,93980.00
2023-05-16T11:14:16.587Z,93978.00
2023-05-16T11:15:14.923Z,93980.00
2023-05-16T11:16:14.875Z,93982.00
2023-05-16T11:17:15.000Z,93980.00
2023-05-16T11:18:13.247Z,93982.00
2023-05-16T11:19:13.271Z,93978.00
2023-05-16T11:20:13.261Z,93978.00
2023-05-16T11:21:13.231Z,93980.00
2023-05-16T11:22:13.246Z,93982.00
2023-05-16T11:23:13.171Z,93976.00
2023-05-16T11:24:13.182Z,93976.00
2023-05-16T11:25:13.174Z,93974.00
2023-05-16T11:26:13.222Z,93976.00
2023-05-16T11:27:13.151Z,93980.00
2023-05-16T11:28:13.206Z,93974.00
2023-05-16T11:29:13.122Z,93974.00
2023-05-16T11:30:13.164Z,93974.00
2023-05-16T11:31:13.159Z,93976.00
2023-05-16T11:32:13.139Z,93974.00
2023-05-16T11:33:13.309Z,93976.00
2023-05-16T11:34:13.172Z,93972.00
2023-05-16T11:35:14.966Z,93972.00
2023-05-16T11:36:16.148Z,93974.00
2023-05-16T11:37:13.252Z,93970.00
2023-05-16T11:38:13.245Z,93970.00
2023-05-16T11:39:13.257Z,93970.00
2023-05-16T11:40:13.405Z,93970.00
2023-05-16T11:41:13.291Z,93966.00
2023-05-16T11:42:13.206Z,93966.00
2023-05-16T11:43:13.221Z,93968.00
2023-05-16T11:44:13.189Z,93968.00
2023-05-16T11:45:13.184Z,93968.00
2023-05-16T11:46:13.194Z,93966.00
2023-05-16T11:47:13.251Z,93966.00
2023-05-16T11:48:21.810Z,93966.00
2023-05-16T11:49:14.215Z,93966.00
2023-05-16T11:50:13.235Z,93966.00
2023-05-16T11:51:13.162Z,93964.00
2023-05-16T11:52:13.167Z,93964.00
2023-05-16T11:53:13.188Z,93961.00
2023-05-16T11:54:13.125Z,93959.00
2023-05-16T11:55:15.586Z,93957.00
2023-05-16T11:56:13.193Z,93957.00
2023-05-16T11:57:13.135Z,93957.00
2023-05-16T11:58:13.097Z,93955.00
2023-05-16T11:59:13.074Z,93951.00
2023-05-16T12:00:13.145Z,93951.00
2023-05-16T12:01:13.291Z,93947.00
2023-05-16T12:02:13.081Z,93947.00
2023-05-16T12:03:13.248Z,93947.00
2023-05-16T12:04:13.219Z,93945.00
2023-05-16T12:05:13.153Z,93941.00
2023-05-16T12:06:13.025Z,93941.00
2023-05-16T12:07:13.052Z,93941.00
2023-05-16T12:08:13.059Z,93943.00
2023-05-16T12:09:13.000Z,93941.00
2023-05-16T12:10:13.074Z,93943.00
2023-05-16T12:11:13.082Z,93941.00
2023-05-16T12:12:13.043Z,93943.00
2023-05-16T12:13:12.994Z,93941.00
2023-05-16T12:14:12.992Z,93937.00
2023-05-16T12:15:13.770Z,93935.00
2023-05-16T12:16:13.013Z,93933.00
2023-05-16T12:17:13.054Z,93933.00
2023-05-16T12:18:13.154Z,93931.00
2023-05-16T12:19:13.029Z,93931.00
2023-05-16T12:20:12.954Z,93933.00
2023-05-16T12:21:12.970Z,93931.00
2023-05-16T12:22:13.074Z,93931.00
2023-05-16T12:23:13.036Z,93931.00
2023-05-16T12:24:13.081Z,93927.00
2023-05-16T12:25:13.104Z,93929.00
2023-05-16T12:26:13.213Z,93927.00
2023-05-16T12:27:13.270Z,93925.00
2023-05-16T12:28:13.371Z,93925.00
2023-05-16T12:29:13.313Z,93925.00
2023-05-16T12:30:13.340Z,93923.00
2023-05-16T12:31:27.018Z,93925.00
2023-05-16T12:32:14.478Z,93923.00
2023-05-16T12:33:13.428Z,93923.00
2023-05-16T12:34:13.436Z,93925.00
2023-05-16T12:35:13.421Z,93921.00
2023-05-16T12:36:13.333Z,93921.00
2023-05-16T12:37:13.393Z,93921.00
2023-05-16T12:38:13.343Z,93919.00
2023-05-16T12:39:13.416Z,93919.00
2023-05-16T12:40:13.360Z,93916.00
2023-05-16T12:41:13.317Z,93916.00
2023-05-16T12:42:13.314Z,93916.00
2023-05-16T12:43:13.506Z,93919.00
2023-05-16T12:44:13.397Z,93916.00
2023-05-16T12:45:13.577Z,93916.00
2023-05-16T12:46:13.562Z,93917.00
2023-05-16T12:47:13.634Z,93919.00
2023-05-16T12:48:13.659Z,93917.00
2023-05-16T12:49:13.687Z,93919.00
2023-05-16T12:50:13.728Z,93919.00
2023-05-16T12:51:13.740Z,93916.00
2023-05-16T12:52:14.671Z,93916.00
2023-05-16T12:53:13.780Z,93916.00
2023-05-16T12:54:13.832Z,93917.00
2023-05-16T12:55:13.777Z,93919.00
2023-05-16T12:56:13.741Z,93919.00
2023-05-16T12:57:13.744Z,93917.00
2023-05-16T12:58:13.834Z,93919.00
2023-05-16T12:59:13.742Z,93917.00
2023-05-16T13:00:13.734Z,93919.00
2023-05-16T13:01:14.214Z,93919.00
2023-05-16T13:02:13.719Z,93919.00
2023-05-16T13:03:13.789Z,93919.00
2023-05-16T13:04:14.110Z,93919.00
2023-05-16T13:05:13.694Z,93921.00
2023-05-16T13:06:13.686Z,93923.00
2023-05-16T13:07:13.773Z,93919.00
2023-05-16T13:08:13.670Z,93925.00
2023-05-16T13:09:13.798Z,93921.00
2023-05-16T13:10:13.675Z,93919.00
2023-05-16T13:11:13.640Z,93923.00
2023-05-16T13:12:13.706Z,93925.00
2023-05-16T13:13:19.168Z,93925.00
2023-05-16T13:14:14.753Z,93927.00
2023-05-16T13:15:13.627Z,93927.00
2023-05-16T13:16:13.624Z,93929.00
2023-05-16T13:17:13.670Z,93933.00
2023-05-16T13:18:13.644Z,93931.00
2023-05-16T13:19:13.672Z,93929.00
2023-05-16T13:20:13.636Z,93931.00
2023-05-16T13:21:13.565Z,93933.00
2023-05-16T13:22:13.606Z,93933.00
2023-05-16T13:23:13.651Z,93931.00
2023-05-16T13:24:13.688Z,93931.00
2023-05-16T13:25:14.037Z,93929.00
2023-05-16T13:26:13.851Z,93925.00
2023-05-16T13:27:13.942Z,93925.00
2023-05-16T13:28:13.960Z,93925.00
2023-05-16T13:29:15.088Z,93923.00
2023-05-16T13:30:14.087Z,93923.00
2023-05-16T13:31:14.141Z,93917.00
2023-05-16T13:32:14.282Z,93919.00
2023-05-16T13:33:14.329Z,93919.00
2023-05-16T13:34:14.296Z,93919.00
2023-05-16T13:35:14.378Z,93917.00
2023-05-16T13:36:14.446Z,93921.00
2023-05-16T13:37:14.507Z,93921.00
2023-05-16T13:38:14.562Z,93921.00
2023-05-16T13:39:14.597Z,93917.00
2023-05-16T13:40:14.672Z,93919.00
2023-05-16T13:41:14.757Z,93921.00
2023-05-16T13:42:14.790Z,93919.00
2023-05-16T13:43:14.819Z,93917.00
2023-05-16T13:44:14.852Z,93923.00
2023-05-16T13:45:14.980Z,93921.00
2023-05-16T13:46:15.054Z,93921.00
2023-05-16T13:47:15.057Z,93921.00
2023-05-16T13:48:15.143Z,93925.00
2023-05-16T13:49:16.858Z,93925.00
2023-05-16T13:50:15.337Z,93923.00
2023-05-16T13:51:15.515Z,93923.00
2023-05-16T13:52:15.836Z,93923.00
2023-05-16T13:53:16.468Z,93925.00
2023-05-16T13:54:15.465Z,93925.00
2023-05-16T13:55:16.621Z,93925.00
2023-05-16T13:56:16.707Z,93927.00
2023-05-16T13:57:15.851Z,93927.00
2023-05-16T13:58:15.924Z,93929.00
2023-05-16T13:59:20.774Z,93931.00
2023-05-16T14:01:15.845Z,93931.00
2023-05-16T14:02:15.891Z,93931.00
2023-05-16T14:03:16.164Z,93933.00
2023-05-16T14:04:16.034Z,93935.00
2023-05-16T14:05:15.970Z,93939.00
2023-05-16T14:06:16.067Z,93937.00
2023-05-16T14:07:16.110Z,93939.00
2023-05-16T14:08:16.288Z,93937.00
2023-05-16T14:09:16.384Z,93939.00
2023-05-16T14:10:16.341Z,93937.00
2023-05-16T14:11:16.264Z,93939.00
2023-05-16T14:12:16.360Z,93937.00
2023-05-16T14:13:16.562Z,93937.00
2023-05-16T14:14:16.450Z,93937.00
2023-05-16T14:15:16.527Z,93935.00
2023-05-16T14:16:17.651Z,93935.00
2023-05-16T14:17:16.561Z,93937.00
2023-05-16T14:18:16.868Z,93939.00
2023-05-16T14:19:19.174Z,93939.00
2023-05-16T14:20:16.714Z,93943.00
2023-05-16T14:21:16.783Z,93947.00
2023-05-16T14:22:16.808Z,93943.00
2023-05-16T14:23:16.906Z,93945.00
2023-05-16T14:24:16.653Z,93943.00
2023-05-16T14:25:16.722Z,93943.00
2023-05-16T14:26:16.716Z,93943.00
2023-05-16T14:27:17.797Z,93945.00
2023-05-16T14:28:16.736Z,93947.00
2023-05-16T14:29:16.590Z,93941.00
2023-05-16T14:30:16.686Z,93945.00
2023-05-16T14:31:16.787Z,93945.00
2023-05-16T14:32:17.447Z,93945.00
2023-05-16T14:33:16.815Z,93943.00
2023-05-16T14:34:16.594Z,93945.00
2023-05-16T14:35:16.750Z,93947.00
2023-05-16T14:36:16.544Z,93951.00
2023-05-16T14:37:16.542Z,93945.00
2023-05-16T14:38:16.561Z,93945.00
2023-05-16T14:39:16.646Z,93945.00
2023-05-16T14:40:16.533Z,93947.00
2023-05-16T14:41:16.524Z,93945.00
2023-05-16T14:42:16.482Z,93951.00
2023-05-16T14:43:16.524Z,93949.00
2023-05-16T14:44:16.491Z,93949.00
2023-05-16T14:45:16.533Z,93949.00
2023-05-16T14:46:16.490Z,93951.00
2023-05-16T14:47:16.501Z,93951.00
2023-05-16T14:48:16.517Z,93945.00
2023-05-16T14:49:16.508Z,93947.00
2023-05-16T14:50:16.467Z,93947.00
2023-05-16T14:51:16.445Z,93951.00
2023-05-16T14:52:16.425Z,93953.00
2023-05-16T14:53:16.466Z,93953.00
2023-05-16T14:54:16.400Z,93955.00
2023-05-16T14:55:16.448Z,93955.00
2023-05-16T14:56:16.447Z,93955.00
2023-05-16T14:57:16.385Z,93957.00
2023-05-16T14:58:16.461Z,93959.00
2023-05-16T14:59:16.392Z,93955.00
2023-05-16T15:00:16.467Z,93957.00
2023-05-16T15:01:16.413Z,93959.00
2023-05-16T15:02:16.517Z,93961.00
2023-05-16T15:03:16.497Z,93964.00
2023-05-16T15:04:16.441Z,93964.00
2023-05-16T15:05:16.598Z,93966.00
2023-05-16T15:06:16.503Z,93966.00
2023-05-16T15:07:16.542Z,93966.00
2023-05-16T15:08:16.571Z,93964.00
2023-05-16T15:09:16.699Z,93964.00
2023-05-16T15:10:16.573Z,93963.00
2023-05-16T15:11:16.671Z,93964.00
2023-05-16T15:12:16.659Z,93968.00
2023-05-16T15:13:16.663Z,93968.00
2023-05-16T15:14:16.665Z,93970.00
2023-05-16T15:15:16.884Z,93972.00
2023-05-16T15:16:16.914Z,93972.00
2023-05-16T15:17:16.725Z,93972.00
2023-05-16T15:18:16.786Z,93972.00
2023-05-16T15:19:16.817Z,93974.00
2023-05-16T15:20:16.802Z,93972.00
2023-05-16T15:21:16.818Z,93976.00
2023-05-16T15:22:16.851Z,93974.00
2023-05-16T15:23:16.897Z,93978.00
2023-05-16T15:24:16.974Z,93976.00
2023-05-16T15:25:16.901Z,93978.00
2023-05-16T15:26:16.906Z,93980.00
2023-05-16T15:27:16.906Z,93980.00
2023-05-16T15:28:16.938Z,93982.00
2023-05-16T15:29:16.968Z,93982.00
2023-05-16T15:30:16.971Z,93980.00
2023-05-16T15:31:17.005Z,93980.00
2023-05-16T15:32:17.120Z,93982.00
2023-05-16T15:33:16.995Z,93982.00
2023-05-16T15:34:17.007Z,93982.00
2023-05-16T15:35:17.002Z,93982.00
2023-05-16T15:36:17.040Z,93982.00
2023-05-16T15:37:17.016Z,93982.00
2023-05-16T15:38:17.012Z,93984.00
2023-05-16T15:39:17.058Z,93984.00
2023-05-16T15:40:17.011Z,93984.00
2023-05-16T15:41:27.102Z,93982.00
2023-05-16T15:42:18.001Z,93986.00
2023-05-16T15:43:17.012Z,93984.00
2023-05-16T15:44:17.002Z,93986.00
2023-05-16T15:45:17.082Z,93986.00
2023-05-16T15:46:17.018Z,93986.00
2023-05-16T15:47:17.059Z,93986.00
2023-05-16T15:48:17.207Z,93986.00
2023-05-16T15:49:16.976Z,93986.00
2023-05-16T15:50:16.984Z,93986.00
2023-05-16T15:51:16.977Z,93986.00
2023-05-16T15:52:16.953Z,93988.00
2023-05-16T15:53:16.970Z,93986.00
2023-05-16T15:54:16.947Z,93986.00
2023-05-16T15:55:16.959Z,93986.00
2023-05-16T15:56:16.935Z,93984.00
2023-05-16T15:57:16.952Z,93984.00
2023-05-16T15:58:16.921Z,93986.00
2023-05-16T15:59:16.911Z,93990.00
2023-05-16T16:00:16.881Z,93986.00
2023-05-16T16:01:16.987Z,93992.00
2023-05-16T16:02:16.955Z,93992.00
2023-05-16T16:03:16.984Z,93988.00
2023-05-16T16:04:16.956Z,93990.00
2023-05-16T16:05:17.851Z,93990.00
2023-05-16T16:06:16.849Z,93990.00
2023-05-16T16:07:16.871Z,93994.00
2023-05-16T16:08:16.837Z,93994.00
2023-05-16T16:09:16.948Z,93994.00
2023-05-16T16:10:16.821Z,93992.00
2023-05-16T16:11:16.818Z,93996.00
2023-05-16T16:12:16.811Z,93994.00
2023-05-16T16:13:16.802Z,93998.00
2023-05-16T16:14:16.790Z,93998.00
2023-05-16T16:15:16.792Z,93998.00
2023-05-16T16:16:16.797Z,94000.00
2023-05-16T16:17:16.879Z,94002.00
2023-05-16T16:18:16.828Z,94004.00
2023-05-16T16:19:17.147Z,94006.00
2023-05-16T16:20:16.927Z,94008.00
2023-05-16T16:21:16.876Z,94006.00
2023-05-16T16:22:16.848Z,94006.00
2023-05-16T16:23:16.841Z,94013.00
2023-05-16T16:24:16.832Z,94013.00
2023-05-16T16:25:16.871Z,94011.00
2023-05-16T16:26:16.781Z,94013.00
2023-05-16T16:27:16.774Z,94013.00
2023-05-16T16:28:16.748Z,94013.00
2023-05-16T16:29:16.779Z,94019.00
2023-05-16T16:30:16.788Z,94019.00
2023-05-16T16:31:16.791Z,94021.00
2023-05-16T16:32:16.797Z,94025.00
2023-05-16T16:33:17.002Z,94023.00
2023-05-16T16:34:16.763Z,94023.00
2023-05-16T16:35:16.752Z,94025.00
2023-05-16T16:36:16.816Z,94023.00
2023-05-16T16:37:16.807Z,94027.00
2023-05-16T16:38:16.765Z,94029.00
2023-05-16T16:39:16.730Z,94029.00
2023-05-16T16:40:16.836Z,94033.00
2023-05-16T16:41:16.741Z,94033.00
2023-05-16T16:42:16.796Z,94029.00
2023-05-16T16:43:16.727Z,94031.00
2023-05-16T16:44:16.748Z,94031.00
2023-05-16T16:45:16.757Z,94031.00
2023-05-16T16:46:16.779Z,94031.00
2023-05-16T16:47:16.796Z,94027.00
2023-05-16T16:48:16.794Z,94025.00
2023-05-16T16:49:16.814Z,94029.00
2023-05-16T16:50:16.785Z,94031.00
2023-05-16T16:51:16.902Z,94033.00
2023-05-16T16:52:16.823Z,94035.00
2023-05-16T16:53:16.809Z,94035.00
2023-05-16T16:54:16.817Z,94035.00
2023-05-16T16:55:16.865Z,94033.00
2023-05-16T16:56:16.870Z,94033.00
2023-05-16T16:57:16.810Z,94037.00
2023-05-16T16:58:16.816Z,94033.00
2023-05-16T16:59:17.187Z,94033.00
2023-05-16T17:00:16.864Z,94033.00
2023-05-16T17:01:16.932Z,94031.00
2023-05-16T17:02:16.921Z,94031.00
2023-05-16T17:03:16.864Z,94037.00
2023-05-16T17:04:16.838Z,94039.00
2023-05-16T17:05:16.888Z,94039.00
2023-05-16T17:06:16.850Z,94041.00
2023-05-16T17:07:16.926Z,94041.00
2023-05-16T17:08:16.921Z,94037.00
2023-05-16T17:09:16.927Z,94029.00
2023-05-16T17:10:16.916Z,94037.00
2023-05-16T17:11:16.889Z,94043.00
2023-05-16T17:12:16.900Z,94037.00
2023-05-16T17:13:16.902Z,94045.00
2023-05-16T17:14:16.917Z,94043.00
2023-05-16T17:15:16.914Z,94053.00
2023-05-16T17:16:16.976Z,94066.00
2023-05-16T17:17:16.930Z,94051.00
2023-05-16T17:18:16.993Z,94055.00